Time;durP1;ratioP1;P1;durP2;ratioP2;P2;SDS_P1;SDS_P2;PMS_P1;PMS_P2;Temp;Humidity;BMP_temperature;BMP_pressure;BME280_temperature;BME280_humidity;BME280_pressure;Samples;Min_cycle;Max_cycle;Signal;HPM_P1;HPM_P2
2022/10/10 00:00:39;;;;;;;;;;;;;;;;;;5016386;28;1898;-67
2022/10/10 00:03:05;;;;;;;;;;;;;;;;;;5015714;28;1194;-66
2022/10/10 00:05:30;;;;;;;;;;;;;;;;;;5015649;28;1142;-66
2022/10/10 00:07:55;;;;;;;;;;;;;;;;;;5016150;28;1065;-66
2022/10/10 00:10:21;;;;;;;;;;;;;;;;;;5033124;28;861;-67
2022/10/10 00:12:46;;;;;;;;;;;;;;;;;;5033910;28;916;-67
2022/10/10 00:15:12;;;;;;;;;;;;;;;;;;5033301;28;895;-66
2022/10/10 00:17:39;;;;;;;;;;;;;;;;;;5032998;28;864;-66
2022/10/10 00:20:04;;;;;;;;;;;;;;;;;;5033072;28;1969;-67
2022/10/10 00:22:29;;;;;;;;;;;;;;;;;;5033363;28;1002;-67
2022/10/10 00:24:55;;;;;;;;;;;;;;;;;;5032095;28;640;-67
2022/10/10 00:27:20;;;;;;;;;;;;;;;;;;5033341;28;950;-67
2022/10/10 00:29:45;;;;;;;;;;;;;;;;;;5033890;28;900;-67
2022/10/10 00:32:10;;;;;;;;;;;;;;;;;;5015035;28;3359;-66
2022/10/10 00:34:36;;;;;;;;;;;;;;;;;;5013791;28;980;-66
2022/10/10 00:37:01;;;;;;;;;;;;;;;;;;5028873;28;991;-67
2022/10/10 00:39:26;;;;;;;;;;;;;;;;;;5028305;28;1894;-67
2022/10/10 00:41:51;;;;;;;;;;;;;;;;;;5013432;28;909;-67
2022/10/10 00:44:17;;;;;;;;;;;;;;;;;;5028664;28;841;-66
2022/10/10 00:46:42;;;;;;;;;;;;;;;;;;5014215;28;813;-67
2022/10/10 00:49:18;;;;;;;;;;;;;;;;;;4995645;28;1630;-66
2022/10/10 00:51:45;;;;;;;;;;;;;;;;;;5013328;28;1051;-66
2022/10/10 00:54:11;;;;;;;;;;;;;;;;;;5012956;28;849;-66
2022/10/10 00:56:39;;;;;;;;;;;;;;;;;;5013836;28;850;-67
2022/10/10 00:59:07;;;;;;;;;;;;;;;;;;5012974;28;1894;-67
2022/10/10 01:01:33;;;;;;;;;;;;;;;;;;5013121;28;857;-66
2022/10/10 01:03:59;;;;;;;;;;;;;;;;;;4995296;28;1469;-67
2022/10/10 01:06:25;;;;;;;;;;;;;;;;;;5012392;28;833;-67
2022/10/10 01:08:50;;;;;;;;;;;;;;;;;;5012976;28;968;-67
2022/10/10 01:11:28;;;;;;;;;;;;;;;;;;5010918;28;1264;-67
2022/10/10 01:13:59;;;;;;;;;;;;;;;;;;5028040;28;1392;-67
2022/10/10 01:16:24;;;;;;;;;;;;;;;;;;5027249;28;1164;-66
2022/10/10 01:18:56;;;;;;;;;;;;;;;;;;5012429;28;1245;-67
2022/10/10 01:21:26;;;;;;;;;;;;;;;;;;5012416;28;1985;-66
2022/10/10 01:23:52;;;;;;;;;;;;;;;;;;5012718;28;996;-67
2022/10/10 01:26:35;;;;;;;;;;;;;;;;;;5014937;28;3565;-67
2022/10/10 01:29:12;;;;;;;;;;;;;;;;;;5032448;28;959;-67
2022/10/10 01:31:39;;;;;;;;;;;;;;;;;;5014688;28;1319;-67
2022/10/10 01:34:04;;;;;;;;;;;;;;;;;;5032063;28;805;-67
2022/10/10 01:36:32;;;;;;;;;;;;;;;;;;5031556;28;936;-66
2022/10/10 01:39:08;;;;;;;;;;;;;;;;;;5032099;28;853;-67
2022/10/10 01:41:37;;;;;;;;;;;;;;;;;;5031833;28;940;-67
2022/10/10 01:44:02;;;;;;;;;;;;;;;;;;5031646;28;821;-67
2022/10/10 01:46:28;;;;;;;;;;;;;;;;;;5046553;28;881;-66
2022/10/10 01:48:54;;;;;;;;;;;;;;;;;;5047343;28;892;-66
2022/10/10 01:51:23;;;;;;;;;;;;;;;;;;5031337;28;892;-67
2022/10/10 01:53:48;;;;;;;;;;;;;;;;;;5031803;28;925;-67
2022/10/10 01:56:30;;;;;;;;;;;;;;;;;;5031434;28;949;-66
2022/10/10 01:59:03;;;;;;;;;;;;;;;;;;5031915;28;912;-66
2022/10/10 02:01:28;;;;;;;;;;;;;;;;;;5031312;28;1967;-67
2022/10/10 02:04:10;;;;;;;;;;;;;;;;;;5031182;28;1138;-67
2022/10/10 02:06:39;;;;;;;;;;;;;;;;;;5047128;28;1500;-66
2022/10/10 02:09:10;;;;;;;;;;;;;;;;;;5031895;28;766;-67
2022/10/10 02:11:38;;;;;;;;;;;;;;;;;;5031179;28;1261;-67
2022/10/10 02:14:11;;;;;;;;;;;;;;;;;;5032343;28;955;-67
2022/10/10 02:16:37;;;;;;;;;;;;;;;;;;5030653;28;1263;-66
2022/10/10 02:19:06;;;;;;;;;;;;;;;;;;5030632;28;1315;-67
2022/10/10 02:21:32;;;;;;;;;;;;;;;;;;5031708;28;778;-66
2022/10/10 02:24:01;;;;;;;;;;;;;;;;;;5030630;28;1231;-67
2022/10/10 02:26:27;;;;;;;;;;;;;;;;;;5030297;28;1200;-67
2022/10/10 02:28:55;;;;;;;;;;;;;;;;;;5032123;28;901;-67
2022/10/10 02:31:26;;;;;;;;;;;;;;;;;;5031561;28;827;-66
2022/10/10 02:33:58;;;;;;;;;;;;;;;;;;5031903;28;916;-67
2022/10/10 02:36:24;;;;;;;;;;;;;;;;;;5031016;28;968;-67
2022/10/10 02:38:51;;;;;;;;;;;;;;;;;;5029762;28;1434;-66
2022/10/10 02:41:17;;;;;;;;;;;;;;;;;;5029195;28;1901;-67
2022/10/10 02:43:43;;;;;;;;;;;;;;;;;;5046498;28;1164;-66
2022/10/10 02:46:10;;;;;;;;;;;;;;;;;;5031139;28;859;-67
2022/10/10 02:48:36;;;;;;;;;;;;;;;;;;5029332;28;1444;-67
2022/10/10 02:51:01;;;;;;;;;;;;;;;;;;5029461;28;1148;-67
2022/10/10 02:53:26;;;;;;;;;;;;;;;;;;5030373;28;813;-67
2022/10/10 02:55:52;;;;;;;;;;;;;;;;;;5030873;28;967;-67
2022/10/10 02:58:18;;;;;;;;;;;;;;;;;;5030227;28;877;-67
2022/10/10 03:00:43;;;;;;;;;;;;;;;;;;5046130;28;1897;-66
2022/10/10 03:03:08;;;;;;;;;;;;;;;;;;5029454;28;1250;-66
2022/10/10 03:05:33;;;;;;;;;;;;;;;;;;5030369;28;778;-66
2022/10/10 03:07:59;;;;;;;;;;;;;;;;;;5031344;28;884;-67
2022/10/10 03:10:24;;;;;;;;;;;;;;;;;;5030423;28;782;-67
2022/10/10 03:12:49;;;;;;;;;;;;;;;;;;5030883;28;1031;-67
2022/10/10 03:15:15;;;;;;;;;;;;;;;;;;5029562;28;2964;-66
2022/10/10 03:17:40;;;;;;;;;;;;;;;;;;5006432;28;3136;-66
2022/10/10 03:20:06;;;;;;;;;;;;;;;;;;5034382;28;1976;-66
2022/10/10 03:22:31;;;;;;;;;;;;;;;;;;5034317;28;806;-66
2022/10/10 03:24:56;;;;;;;;;;;;;;;;;;5050490;28;896;-66
2022/10/10 03:27:22;;;;;;;;;;;;;;;;;;5032399;28;1161;-66
2022/10/10 03:29:47;;;;;;;;;;;;;;;;;;5034857;28;916;-66
2022/10/10 03:32:12;;;;;;;;;;;;;;;;;;5048778;28;3000;-65
2022/10/10 03:34:38;;;;;;;;;;;;;;;;;;5049606;28;1275;-65
2022/10/10 03:37:03;;;;;;;;;;;;;;;;;;5050150;28;1195;-65
2022/10/10 03:39:28;;;;;;;;;;;;;;;;;;5033790;28;1902;-65
2022/10/10 03:41:54;;;;;;;;;;;;;;;;;;5016526;28;1161;-65
2022/10/10 03:44:19;;;;;;;;;;;;;;;;;;5049619;28;1203;-64
2022/10/10 03:46:44;;;;;;;;;;;;;;;;;;5035017;28;908;-65
2022/10/10 03:49:09;;;;;;;;;;;;;;;;;;5034454;28;1098;-65
2022/10/10 03:51:35;;;;;;;;;;;;;;;;;;5050333;28;932;-65
2022/10/10 03:54:00;;;;;;;;;;;;;;;;;;5050548;28;1185;-65
2022/10/10 03:56:26;;;;;;;;;;;;;;;;;;5049427;28;1386;-65
2022/10/10 03:58:51;;;;;;;;;;;;;;;;;;5034684;28;1051;-65
2022/10/10 04:01:17;;;;;;;;;;;;;;;;;;5049660;28;1910;-65
2022/10/10 04:03:42;;;;;;;;;;;;;;;;;;5032942;28;1291;-65
2022/10/10 04:06:07;;;;;;;;;;;;;;;;;;5032993;28;1273;-65
2022/10/10 04:08:33;;;;;;;;;;;;;;;;;;5048934;28;908;-65
2022/10/10 04:10:58;;;;;;;;;;;;;;;;;;5034207;28;892;-64
2022/10/10 04:13:24;;;;;;;;;;;;;;;;;;5048510;28;1157;-65
2022/10/10 04:15:53;;;;;;;;;;;;;;;;;;5033778;28;895;-65
2022/10/10 04:18:19;;;;;;;;;;;;;;;;;;5033111;28;1141;-65
2022/10/10 04:20:44;;;;;;;;;;;;;;;;;;5032515;28;1901;-65
2022/10/10 04:23:09;;;;;;;;;;;;;;;;;;5049343;28;1176;-64
2022/10/10 04:25:35;;;;;;;;;;;;;;;;;;5033455;28;877;-65
2022/10/10 04:28:00;;;;;;;;;;;;;;;;;;5033473;28;896;-65
2022/10/10 04:30:26;;;;;;;;;;;;;;;;;;5033454;28;983;-65
2022/10/10 04:32:52;;;;;;;;;;;;;;;;;;5048549;28;821;-65
2022/10/10 04:35:17;;;;;;;;;;;;;;;;;;5048263;28;905;-65
2022/10/10 04:37:44;;;;;;;;;;;;;;;;;;5048526;28;901;-65
2022/10/10 04:40:09;;;;;;;;;;;;;;;;;;5048398;28;1897;-65
2022/10/10 04:42:35;;;;;;;;;;;;;;;;;;5047968;28;861;-65
2022/10/10 04:45:00;;;;;;;;;;;;;;;;;;5048463;28;921;-65
2022/10/10 04:47:25;;;;;;;;;;;;;;;;;;5032380;28;853;-65
2022/10/10 04:49:51;;;;;;;;;;;;;;;;;;5033252;28;818;-65
2022/10/10 04:52:16;;;;;;;;;;;;;;;;;;5032575;28;1007;-65
2022/10/10 04:54:41;;;;;;;;;;;;;;;;;;5014878;28;1296;-65
2022/10/10 04:57:07;;;;;;;;;;;;;;;;;;5048122;28;1328;-65
2022/10/10 04:59:32;;;;;;;;;;;;;;;;;;5047644;28;1898;-65
2022/10/10 05:01:57;;;;;;;;;;;;;;;;;;5047868;28;1283;-65
2022/10/10 05:04:23;;;;;;;;;;;;;;;;;;5031205;28;2995;-65
2022/10/10 05:06:48;;;;;;;;;;;;;;;;;;5032626;28;960;-67
2022/10/10 05:09:13;;;;;;;;;;;;;;;;;;5045833;28;1169;-66
2022/10/10 05:11:38;;;;;;;;;;;;;;;;;;5033531;28;885;-66
2022/10/10 05:14:04;;;;;;;;;;;;;;;;;;5033372;28;1281;-66
2022/10/10 05:16:29;;;;;;;;;;;;;;;;;;5014886;28;1136;-66
2022/10/10 05:18:56;;;;;;;;;;;;;;;;;;5032921;28;1071;-66
2022/10/10 05:21:22;;;;;;;;;;;;;;;;;;5032697;28;1961;-66
2022/10/10 05:23:47;;;;;;;;;;;;;;;;;;5032443;28;948;-66
2022/10/10 05:26:13;;;;;;;;;;;;;;;;;;5014941;28;861;-67
2022/10/10 05:28:38;;;;;;;;;;;;;;;;;;5031099;28;837;-65
2022/10/10 05:31:04;;;;;;;;;;;;;;;;;;5032006;28;880;-65
2022/10/10 05:33:29;;;;;;;;;;;;;;;;;;5031651;28;758;-65
2022/10/10 05:36:01;;;;;;;;;;;;;;;;;;5032142;28;817;-65
2022/10/10 05:38:27;;;;;;;;;;;;;;;;;;5030739;28;810;-66
2022/10/10 05:40:53;;;;;;;;;;;;;;;;;;5032448;28;1957;-66
2022/10/10 05:43:18;;;;;;;;;;;;;;;;;;5031778;28;914;-65
2022/10/10 05:45:43;;;;;;;;;;;;;;;;;;5030569;28;1082;-66
2022/10/10 05:48:09;;;;;;;;;;;;;;;;;;5013992;28;1156;-66
2022/10/10 05:50:38;;;;;;;;;;;;;;;;;;5030449;28;1087;-66
2022/10/10 05:53:05;;;;;;;;;;;;;;;;;;5031643;28;869;-66
2022/10/10 05:55:30;;;;;;;;;;;;;;;;;;5013545;28;912;-66
2022/10/10 05:57:56;;;;;;;;;;;;;;;;;;5029371;28;1560;-66
2022/10/10 06:00:21;;;;;;;;;;;;;;;;;;5011725;28;1952;-66
2022/10/10 06:02:46;;;;;;;;;;;;;;;;;;5013681;28;1178;-68
2022/10/10 06:05:12;;;;;;;;;;;;;;;;;;5032091;28;848;-68
2022/10/10 06:07:38;;;;;;;;;;;;;;;;;;5013727;28;1047;-68
2022/10/10 06:10:03;;;;;;;;;;;;;;;;;;5031525;28;876;-68
2022/10/10 06:12:29;;;;;;;;;;;;;;;;;;5029630;28;884;-68
2022/10/10 06:14:54;;;;;;;;;;;;;;;;;;5030337;28;853;-68
2022/10/10 06:17:19;;;;;;;;;;;;;;;;;;5031412;28;1002;-68
2022/10/10 06:19:45;;;;;;;;;;;;;;;;;;5029372;28;1906;-68
2022/10/10 06:22:10;;;;;;;;;;;;;;;;;;5029099;28;1243;-68
2022/10/10 06:24:35;;;;;;;;;;;;;;;;;;5027070;28;1169;-68
2022/10/10 06:27:00;;;;;;;;;;;;;;;;;;5031371;28;837;-68
2022/10/10 06:29:26;;;;;;;;;;;;;;;;;;5013179;28;1275;-68
2022/10/10 06:31:51;;;;;;;;;;;;;;;;;;5014208;28;1212;-68
2022/10/10 06:34:17;;;;;;;;;;;;;;;;;;5013798;28;1078;-68
2022/10/10 06:36:42;;;;;;;;;;;;;;;;;;5031917;28;861;-68
2022/10/10 06:39:07;;;;;;;;;;;;;;;;;;5014434;28;1212;-68
2022/10/10 06:41:33;;;;;;;;;;;;;;;;;;5031457;28;1981;-68
2022/10/10 06:43:58;;;;;;;;;;;;;;;;;;5014059;28;1180;-68
2022/10/10 06:46:23;;;;;;;;;;;;;;;;;;5029940;28;896;-68
2022/10/10 06:48:49;;;;;;;;;;;;;;;;;;5014239;28;1286;-68
2022/10/10 06:51:15;;;;;;;;;;;;;;;;;;5030256;28;881;-67
2022/10/10 06:53:40;;;;;;;;;;;;;;;;;;5030615;28;2870;-68
2022/10/10 06:56:06;;;;;;;;;;;;;;;;;;5047042;28;794;-68
2022/10/10 06:58:31;;;;;;;;;;;;;;;;;;5030641;28;868;-68
2022/10/10 07:00:58;;;;;;;;;;;;;;;;;;5013640;28;1902;-68
2022/10/10 07:03:24;;;;;;;;;;;;;;;;;;5012805;28;1389;-68
2022/10/10 07:05:50;;;;;;;;;;;;;;;;;;5030667;28;861;-68
2022/10/10 07:08:16;;;;;;;;;;;;;;;;;;5030504;28;889;-68
2022/10/10 07:10:42;;;;;;;;;;;;;;;;;;5030933;28;810;-68
2022/10/10 07:13:07;;;;;;;;;;;;;;;;;;5045955;28;1209;-68
2022/10/10 07:15:33;;;;;;;;;;;;;;;;;;5030383;28;899;-68
2022/10/10 07:17:59;;;;;;;;;;;;;;;;;;5030608;28;883;-68
2022/10/10 07:20:24;;;;;;;;;;;;;;;;;;5028619;28;1963;-69
2022/10/10 07:22:50;;;;;;;;;;;;;;;;;;5012589;28;1298;-68
2022/10/10 07:25:15;;;;;;;;;;;;;;;;;;5045713;28;1291;-68
2022/10/10 07:27:40;;;;;;;;;;;;;;;;;;5029908;28;862;-68
2022/10/10 07:30:06;;;;;;;;;;;;;;;;;;5045456;28;1220;-68
2022/10/10 07:32:31;;;;;;;;;;;;;;;;;;5030050;28;1051;-69
2022/10/10 07:34:57;;;;;;;;;;;;;;;;;;5030305;28;877;-69
2022/10/10 07:37:26;;;;;;;;;;;;;;;;;;5030178;28;782;-68
2022/10/10 07:39:51;;;;;;;;;;;;;;;;;;5045520;28;1910;-69
2022/10/10 07:42:17;;;;;;;;;;;;;;;;;;5046139;28;932;-68
2022/10/10 07:44:42;;;;;;;;;;;;;;;;;;5030334;28;830;-68
2022/10/10 07:47:08;;;;;;;;;;;;;;;;;;5015477;28;3938;-68
2022/10/10 07:49:33;;;;;;;;;;;;;;;;;;5009991;28;778;-69
2022/10/10 07:51:58;;;;;;;;;;;;;;;;;;5008917;28;1340;-68
2022/10/10 07:54:24;;;;;;;;;;;;;;;;;;5010145;28;902;-68
2022/10/10 07:56:49;;;;;;;;;;;;;;;;;;5010426;28;913;-69
2022/10/10 07:59:14;;;;;;;;;;;;;;;;;;5009351;28;1429;-68
2022/10/10 08:01:39;;;;;;;;;;;;;;;;;;5026507;28;1902;-69
2022/10/10 08:04:05;;;;;;;;;;;;;;;;;;5012730;28;1225;-68
2022/10/10 08:06:30;;;;;;;;;;;;;;;;;;5029314;28;1148;-68
2022/10/10 08:08:55;;;;;;;;;;;;;;;;;;5015726;28;1718;-68
2022/10/10 08:11:21;;;;;;;;;;;;;;;;;;5025613;28;4322;-68
2022/10/10 08:13:46;;;;;;;;;;;;;;;;;;5037916;28;3529;-68
2022/10/10 08:16:11;;;;;;;;;;;;;;;;;;5033279;28;1771;-68
2022/10/10 08:18:37;;;;;;;;;;;;;;;;;;5019543;28;2858;-69
2022/10/10 08:21:09;;;;;;;;;;;;;;;;;;5019540;28;2152;-68
2022/10/10 08:23:35;;;;;;;;;;;;;;;;;;5021806;28;1621;-68
2022/10/10 08:26:01;;;;;;;;;;;;;;;;;;5009351;28;1697;-68
2022/10/10 08:28:27;;;;;;;;;;;;;;;;;;5015717;28;1861;-69
2022/10/10 08:30:53;;;;;;;;;;;;;;;;;;5017933;28;2573;-68
2022/10/10 08:33:18;;;;;;;;;;;;;;;;;;5021904;28;2066;-69
2022/10/10 08:35:43;;;;;;;;;;;;;;;;;;5033417;28;1657;-69
2022/10/10 08:38:09;;;;;;;;;;;;;;;;;;5019326;28;1666;-68
2022/10/10 08:40:41;;;;;;;;;;;;;;;;;;5010149;28;2032;-69
2022/10/10 08:43:07;;;;;;;;;;;;;;;;;;5017959;28;1723;-69
2022/10/10 08:45:34;;;;;;;;;;;;;;;;;;5018630;28;1813;-69
2022/10/10 08:47:59;;;;;;;;;;;;;;;;;;5018137;28;1580;-68
2022/10/10 08:50:24;;;;;;;;;;;;;;;;;;5017393;28;1532;-69
2022/10/10 08:52:53;;;;;;;;;;;;;;;;;;5033877;28;1851;-69
2022/10/10 08:55:18;;;;;;;;;;;;;;;;;;5018837;28;1544;-68
2022/10/10 08:57:49;;;;;;;;;;;;;;;;;;5001483;28;1617;-69
2022/10/10 09:00:15;;;;;;;;;;;;;;;;;;5002911;28;1922;-68
2022/10/10 09:02:46;;;;;;;;;;;;;;;;;;5018955;28;1615;-67
2022/10/10 09:05:15;;;;;;;;;;;;;;;;;;5003613;28;1739;-68
2022/10/10 09:07:46;;;;;;;;;;;;;;;;;;5015701;28;2939;-67
2022/10/10 09:10:17;;;;;;;;;;;;;;;;;;5017881;28;1720;-67
2022/10/10 09:12:43;;;;;;;;;;;;;;;;;;5003174;28;1728;-68
2022/10/10 09:15:11;;;;;;;;;;;;;;;;;;5004787;28;1695;-68
2022/10/10 09:17:59;;;;;;;;;;;;;;;;;;5017243;28;1817;-68
2022/10/10 09:20:39;;;;;;;;;;;;;;;;;;5007384;28;1981;-68
2022/10/10 09:23:12;;;;;;;;;;;;;;;;;;5016977;28;1811;-67
2022/10/10 09:25:50;;;;;;;;;;;;;;;;;;5022259;28;1622;-67
2022/10/10 09:28:18;;;;;;;;;;;;;;;;;;5010071;28;1614;-68
2022/10/10 09:30:47;;;;;;;;;;;;;;;;;;5017109;28;1666;-67
2022/10/10 09:33:28;;;;;;;;;;;;;;;;;;5006683;28;1631;-68
2022/10/10 09:35:55;;;;;;;;;;;;;;;;;;5003558;28;1775;-68
2022/10/10 09:38:36;;;;;;;;;;;;;;;;;;5014416;28;1552;-68
2022/10/10 09:41:04;;;;;;;;;;;;;;;;;;4998964;28;4233;-67
2022/10/10 09:43:31;;;;;;;;;;;;;;;;;;5009021;28;2855;-69
2022/10/10 09:45:57;;;;;;;;;;;;;;;;;;5004251;28;1693;-70
2022/10/10 09:48:26;;;;;;;;;;;;;;;;;;5032912;28;2980;-70
2022/10/10 09:50:51;;;;;;;;;;;;;;;;;;4999904;28;1779;-70
2022/10/10 09:53:16;;;;;;;;;;;;;;;;;;5030827;28;1810;-70
2022/10/10 09:55:43;;;;;;;;;;;;;;;;;;5031284;28;1659;-70
2022/10/10 09:58:12;;;;;;;;;;;;;;;;;;5003408;28;1552;-71
2022/10/10 10:00:37;;;;;;;;;;;;;;;;;;5006208;28;4351;-71
2022/10/10 10:03:10;;;;;;;;;;;;;;;;;;4989524;28;2863;-69
2022/10/10 10:05:35;;;;;;;;;;;;;;;;;;5006661;28;2791;-69
2022/10/10 10:08:00;;;;;;;;;;;;;;;;;;5031226;28;3162;-67
2022/10/10 10:10:28;;;;;;;;;;;;;;;;;;5014844;28;2408;-67
2022/10/10 10:12:55;;;;;;;;;;;;;;;;;;5019549;28;1585;-67
2022/10/10 10:15:22;;;;;;;;;;;;;;;;;;5018415;28;1829;-67
2022/10/10 10:18:06;;;;;;;;;;;;;;;;;;5003976;28;1708;-67
2022/10/10 10:20:33;;;;;;;;;;;;;;;;;;5018675;28;1910;-67
2022/10/10 10:22:58;;;;;;;;;;;;;;;;;;5017037;28;3173;-67
2022/10/10 10:25:32;;;;;;;;;;;;;;;;;;5014156;28;1708;-66
2022/10/10 10:28:10;;;;;;;;;;;;;;;;;;5011810;28;916;-66
2022/10/10 10:30:35;;;;;;;;;;;;;;;;;;5010060;28;846;-66
2022/10/10 10:33:08;;;;;;;;;;;;;;;;;;5011337;28;995;-67
2022/10/10 10:35:42;;;;;;;;;;;;;;;;;;4993196;28;1178;-67
2022/10/10 10:38:17;;;;;;;;;;;;;;;;;;4994261;28;1325;-67
2022/10/10 10:40:55;;;;;;;;;;;;;;;;;;4993304;28;1922;-67
2022/10/10 10:43:39;;;;;;;;;;;;;;;;;;4994351;28;1367;-67
2022/10/10 10:46:23;;;;;;;;;;;;;;;;;;4998147;28;1615;-67
2022/10/10 10:48:54;;;;;;;;;;;;;;;;;;5041810;28;1358;-65
2022/10/10 10:51:34;;;;;;;;;;;;;;;;;;5029661;28;1224;-66
2022/10/10 10:54:00;;;;;;;;;;;;;;;;;;5011580;28;1172;-65
2022/10/10 10:56:31;;;;;;;;;;;;;;;;;;5029081;28;1161;-66
2022/10/10 10:59:15;;;;;;;;;;;;;;;;;;5029452;28;1161;-65
2022/10/10 11:01:44;;;;;;;;;;;;;;;;;;5012410;28;1969;-66
2022/10/10 11:04:18;;;;;;;;;;;;;;;;;;5012912;28;1276;-66
2022/10/10 11:06:49;;;;;;;;;;;;;;;;;;5030432;28;881;-65
2022/10/10 11:09:18;;;;;;;;;;;;;;;;;;5030676;28;1014;-65
2022/10/10 11:11:52;;;;;;;;;;;;;;;;;;5030168;28;940;-66
2022/10/10 11:14:27;;;;;;;;;;;;;;;;;;5029395;28;1247;-66
2022/10/10 11:17:02;;;;;;;;;;;;;;;;;;5012620;28;1355;-65
2022/10/10 11:19:32;;;;;;;;;;;;;;;;;;5028704;28;1194;-66
2022/10/10 11:22:07;;;;;;;;;;;;;;;;;;5030416;28;838;-66
2022/10/10 11:24:50;;;;;;;;;;;;;;;;;;5030443;28;869;-66
2022/10/10 11:27:18;;;;;;;;;;;;;;;;;;5030357;28;937;-66
2022/10/10 11:29:50;;;;;;;;;;;;;;;;;;5030408;28;920;-66
2022/10/10 11:32:19;;;;;;;;;;;;;;;;;;5013026;28;1259;-67
2022/10/10 11:34:49;;;;;;;;;;;;;;;;;;5023872;28;3271;-67
2022/10/10 11:37:24;;;;;;;;;;;;;;;;;;5011769;28;1313;-67
2022/10/10 11:39:52;;;;;;;;;;;;;;;;;;5015129;28;1898;-67
2022/10/10 11:42:21;;;;;;;;;;;;;;;;;;5013448;28;1339;-67
2022/10/10 11:44:51;;;;;;;;;;;;;;;;;;5013323;28;1065;-67
2022/10/10 11:47:19;;;;;;;;;;;;;;;;;;5013595;28;1275;-67
2022/10/10 11:49:52;;;;;;;;;;;;;;;;;;5014991;28;921;-66
2022/10/10 11:52:24;;;;;;;;;;;;;;;;;;5016089;28;1409;-66
2022/10/10 11:55:02;;;;;;;;;;;;;;;;;;5034970;28;1189;-66
2022/10/10 11:57:31;;;;;;;;;;;;;;;;;;5034356;28;877;-66
2022/10/10 12:00:01;;;;;;;;;;;;;;;;;;5034597;28;1902;-66
2022/10/10 12:02:35;;;;;;;;;;;;;;;;;;5034143;28;837;-66
2022/10/10 12:05:00;;;;;;;;;;;;;;;;;;5015618;28;1314;-67
2022/10/10 12:07:32;;;;;;;;;;;;;;;;;;5015100;28;1314;-67
2022/10/10 12:10:20;;;;;;;;;;;;;;;;;;5012703;28;1357;-67
2022/10/10 12:12:48;;;;;;;;;;;;;;;;;;5030728;28;1114;-66
2022/10/10 12:15:23;;;;;;;;;;;;;;;;;;5034696;28;997;-67
2022/10/10 12:17:48;;;;;;;;;;;;;;;;;;5016004;28;1154;-66
2022/10/10 12:20:14;;;;;;;;;;;;;;;;;;5033077;28;1982;-67
2022/10/10 12:22:39;;;;;;;;;;;;;;;;;;5016469;28;1236;-67
2022/10/10 12:25:35;;;;;;;;;;;;;;;;;;5034000;28;821;-67
2022/10/10 12:28:05;;;;;;;;;;;;;;;;;;5034141;28;810;-67
2022/10/10 12:30:31;;;;;;;;;;;;;;;;;;5034330;28;868;-66
2022/10/10 12:32:56;;;;;;;;;;;;;;;;;;5034339;28;944;-67
2022/10/10 12:35:25;;;;;;;;;;;;;;;;;;5033855;28;853;-67
2022/10/10 12:38:08;;;;;;;;;;;;;;;;;;5034134;28;853;-66
2022/10/10 12:40:54;;;;;;;;;;;;;;;;;;5033559;28;1968;-66
2022/10/10 12:43:21;;;;;;;;;;;;;;;;;;5033857;28;946;-65
2022/10/10 12:45:52;;;;;;;;;;;;;;;;;;5033541;28;1045;-66
2022/10/10 12:48:18;;;;;;;;;;;;;;;;;;5033385;28;955;-67
2022/10/10 12:50:54;;;;;;;;;;;;;;;;;;5033370;28;846;-66
2022/10/10 12:53:21;;;;;;;;;;;;;;;;;;5015790;28;1173;-66
2022/10/10 12:55:48;;;;;;;;;;;;;;;;;;5033297;28;912;-66
2022/10/10 12:58:21;;;;;;;;;;;;;;;;;;5015743;28;1280;-66
2022/10/10 13:00:47;;;;;;;;;;;;;;;;;;5014978;28;1938;-66
2022/10/10 13:03:15;;;;;;;;;;;;;;;;;;5034094;28;806;-67
2022/10/10 13:05:40;;;;;;;;;;;;;;;;;;5033911;28;925;-66
2022/10/10 13:08:10;;;;;;;;;;;;;;;;;;5016375;28;1121;-67
2022/10/10 13:10:35;;;;;;;;;;;;;;;;;;5034440;28;877;-66
2022/10/10 13:13:13;;;;;;;;;;;;;;;;;;5016913;28;1454;-66
2022/10/10 13:15:38;;;;;;;;;;;;;;;;;;5034997;28;989;-66
2022/10/10 13:18:04;;;;;;;;;;;;;;;;;;5016406;28;1538;-66
2022/10/10 13:20:32;;;;;;;;;;;;;;;;;;5016160;28;1914;-66
2022/10/10 13:23:01;;;;;;;;;;;;;;;;;;5033125;28;3604;-67
2022/10/10 13:25:26;;;;;;;;;;;;;;;;;;5033048;28;1153;-66
2022/10/10 13:27:51;;;;;;;;;;;;;;;;;;5034425;28;1054;-67
2022/10/10 13:30:21;;;;;;;;;;;;;;;;;;5033500;28;891;-66
2022/10/10 13:32:46;;;;;;;;;;;;;;;;;;5016753;28;1291;-68
2022/10/10 13:35:14;;;;;;;;;;;;;;;;;;5035485;28;1212;-67
2022/10/10 13:37:40;;;;;;;;;;;;;;;;;;5031545;28;1188;-67
2022/10/10 13:40:11;;;;;;;;;;;;;;;;;;5016719;28;1906;-67
2022/10/10 13:42:38;;;;;;;;;;;;;;;;;;5016779;28;1206;-68
2022/10/10 13:45:22;;;;;;;;;;;;;;;;;;5036315;28;1216;-68
2022/10/10 13:47:52;;;;;;;;;;;;;;;;;;5031327;28;1212;-67
2022/10/10 13:50:19;;;;;;;;;;;;;;;;;;5012685;28;1205;-68
2022/10/10 13:52:44;;;;;;;;;;;;;;;;;;5032678;28;1243;-68
2022/10/10 13:55:14;;;;;;;;;;;;;;;;;;5030363;28;1153;-68
2022/10/10 13:57:40;;;;;;;;;;;;;;;;;;5012177;28;1201;-66
2022/10/10 14:00:13;;;;;;;;;;;;;;;;;;5029526;28;1902;-67
2022/10/10 14:02:40;;;;;;;;;;;;;;;;;;5030388;28;1152;-66
2022/10/10 14:05:07;;;;;;;;;;;;;;;;;;5014304;28;1302;-67
2022/10/10 14:07:32;;;;;;;;;;;;;;;;;;5013309;28;1233;-66
2022/10/10 14:10:08;;;;;;;;;;;;;;;;;;5031702;28;806;-66
2022/10/10 14:12:41;;;;;;;;;;;;;;;;;;5013716;28;995;-66
2022/10/10 14:15:26;;;;;;;;;;;;;;;;;;5031842;28;995;-67
2022/10/10 14:17:52;;;;;;;;;;;;;;;;;;5013856;28;1225;-67
2022/10/10 14:20:17;;;;;;;;;;;;;;;;;;5013631;28;1911;-68
2022/10/10 14:22:43;;;;;;;;;;;;;;;;;;5013448;28;1439;-68
2022/10/10 14:25:09;;;;;;;;;;;;;;;;;;5030574;28;916;-68
2022/10/10 14:27:34;;;;;;;;;;;;;;;;;;5013658;28;1174;-68
2022/10/10 14:30:00;;;;;;;;;;;;;;;;;;5013995;28;1003;-68
2022/10/10 14:32:25;;;;;;;;;;;;;;;;;;5030304;28;798;-68
2022/10/10 14:34:51;;;;;;;;;;;;;;;;;;5013261;28;1453;-68
2022/10/10 14:37:18;;;;;;;;;;;;;;;;;;5029985;28;964;-68
2022/10/10 14:39:44;;;;;;;;;;;;;;;;;;5013510;28;1899;-68
2022/10/10 14:42:13;;;;;;;;;;;;;;;;;;5014099;28;1442;-68
2022/10/10 14:44:38;;;;;;;;;;;;;;;;;;5031229;28;845;-68
2022/10/10 14:47:03;;;;;;;;;;;;;;;;;;5026550;28;1634;-68
2022/10/10 14:49:29;;;;;;;;;;;;;;;;;;5008783;28;1978;-69
2022/10/10 14:51:54;;;;;;;;;;;;;;;;;;5025004;28;3173;-68
2022/10/10 14:54:19;;;;;;;;;;;;;;;;;;5027869;28;2558;-68
2022/10/10 14:56:45;;;;;;;;;;;;;;;;;;5035844;28;1702;-68
2022/10/10 14:59:17;;;;;;;;;;;;;;;;;;5023029;28;1744;-68
2022/10/10 15:01:43;;;;;;;;;;;;;;;;;;5021026;28;1917;-68
2022/10/10 15:04:08;;;;;;;;;;;;;;;;;;5020694;28;1728;-66
2022/10/10 15:06:33;;;;;;;;;;;;;;;;;;5022626;28;1762;-66
2022/10/10 15:08:59;;;;;;;;;;;;;;;;;;5019473;28;1644;-66
2022/10/10 15:11:24;;;;;;;;;;;;;;;;;;5013836;28;1620;-66
2022/10/10 15:13:49;;;;;;;;;;;;;;;;;;5030976;28;1848;-66
2022/10/10 15:16:15;;;;;;;;;;;;;;;;;;5033848;28;1680;-66
2022/10/10 15:18:40;;;;;;;;;;;;;;;;;;5022576;28;1731;-66
2022/10/10 15:21:09;;;;;;;;;;;;;;;;;;5017238;28;1917;-66
2022/10/10 15:23:35;;;;;;;;;;;;;;;;;;5026973;28;1696;-66
2022/10/10 15:26:00;;;;;;;;;;;;;;;;;;5031201;28;1173;-66
2022/10/10 15:28:26;;;;;;;;;;;;;;;;;;5032412;28;1090;-66
2022/10/10 15:30:51;;;;;;;;;;;;;;;;;;5035290;28;868;-66
2022/10/10 15:33:17;;;;;;;;;;;;;;;;;;5017216;28;1252;-66
2022/10/10 15:35:42;;;;;;;;;;;;;;;;;;5034930;28;944;-66
2022/10/10 15:38:08;;;;;;;;;;;;;;;;;;5015472;28;1209;-66
2022/10/10 15:40:34;;;;;;;;;;;;;;;;;;5031062;28;1894;-66
2022/10/10 15:42:59;;;;;;;;;;;;;;;;;;5033492;28;1433;-66
2022/10/10 15:45:25;;;;;;;;;;;;;;;;;;5016801;28;1292;-66
2022/10/10 15:47:50;;;;;;;;;;;;;;;;;;5016641;28;1351;-66
2022/10/10 15:50:15;;;;;;;;;;;;;;;;;;5016074;28;1330;-66
2022/10/10 15:52:41;;;;;;;;;;;;;;;;;;5016140;28;1359;-66
2022/10/10 15:55:06;;;;;;;;;;;;;;;;;;5016692;28;1196;-66
2022/10/10 15:57:32;;;;;;;;;;;;;;;;;;5034171;28;837;-66
2022/10/10 15:59:57;;;;;;;;;;;;;;;;;;5016386;28;1963;-66
2022/10/10 16:02:23;;;;;;;;;;;;;;;;;;5033053;28;912;-66
2022/10/10 16:04:48;;;;;;;;;;;;;;;;;;5016023;28;1359;-66
2022/10/10 16:07:14;;;;;;;;;;;;;;;;;;5015871;28;1248;-66
2022/10/10 16:09:39;;;;;;;;;;;;;;;;;;5032954;28;888;-66
2022/10/10 16:12:05;;;;;;;;;;;;;;;;;;5016049;28;1319;-66
2022/10/10 16:14:30;;;;;;;;;;;;;;;;;;5016779;28;1374;-66
2022/10/10 16:16:55;;;;;;;;;;;;;;;;;;5033509;28;915;-66
2022/10/10 16:19:21;;;;;;;;;;;;;;;;;;5033685;28;1201;-66
2022/10/10 16:21:46;;;;;;;;;;;;;;;;;;5033667;28;1910;-66
2022/10/10 16:24:11;;;;;;;;;;;;;;;;;;5032733;28;833;-66
2022/10/10 16:26:37;;;;;;;;;;;;;;;;;;5016064;28;1151;-66
2022/10/10 16:29:03;;;;;;;;;;;;;;;;;;5034254;28;901;-66
2022/10/10 16:31:29;;;;;;;;;;;;;;;;;;5015912;28;1252;-66
2022/10/10 16:33:55;;;;;;;;;;;;;;;;;;5015759;28;1242;-66
2022/10/10 16:36:22;;;;;;;;;;;;;;;;;;5033783;28;896;-66
2022/10/10 16:38:47;;;;;;;;;;;;;;;;;;5032148;28;2924;-66
2022/10/10 16:41:15;;;;;;;;;;;;;;;;;;5014830;28;3291;-66
2022/10/10 16:43:41;;;;;;;;;;;;;;;;;;5012840;28;1157;-66
2022/10/10 16:46:07;;;;;;;;;;;;;;;;;;5014607;28;806;-66
2022/10/10 16:48:35;;;;;;;;;;;;;;;;;;5013527;28;869;-66
2022/10/10 16:51:02;;;;;;;;;;;;;;;;;;5013565;28;1251;-66
2022/10/10 16:53:27;;;;;;;;;;;;;;;;;;5013942;28;905;-66
2022/10/10 16:55:56;;;;;;;;;;;;;;;;;;5012731;28;1145;-66
2022/10/10 16:58:21;;;;;;;;;;;;;;;;;;5013795;28;829;-66
2022/10/10 17:00:46;;;;;;;;;;;;;;;;;;5013898;28;1902;-67
2022/10/10 17:03:11;;;;;;;;;;;;;;;;;;4996438;28;1291;-66
2022/10/10 17:05:37;;;;;;;;;;;;;;;;;;5013239;28;947;-66
2022/10/10 17:08:02;;;;;;;;;;;;;;;;;;5028869;28;861;-67
2022/10/10 17:10:27;;;;;;;;;;;;;;;;;;5013493;28;857;-67